Time;durP1;ratioP1;P1;durP2;ratioP2;P2;SDS_P1;SDS_P2;PMS_P1;PMS_P2;Temp;Humidity;BMP_temperature;BMP_pressure;BME280_temperature;BME280_humidity;BME280_pressure;Samples;Min_cycle;Max_cycle;Signal;HPM_P1;HPM_P2
2022/02/21 00:02:00;;;;;;;1.73;1.45;;;;;;;;;;5093225;28;20032;-57
2022/02/21 00:04:26;;;;;;;1.05;0.95;;;;;;;;;;5093176;28;20020;-57
2022/02/21 00:06:51;;;;;;;1.13;0.90;;;;;;;;;;5093261;28;20024;-57
2022/02/21 00:09:17;;;;;;;1.98;1.25;;;;;;;;;;5092881;28;20027;-58
2022/02/21 00:11:42;;;;;;;2.33;1.27;;;;;;;;;;5092974;28;20019;-57
2022/02/21 00:14:08;;;;;;;1.30;1.00;;;;;;;;;;5093037;28;20020;-58
2022/02/21 00:16:34;;;;;;;1.15;0.80;;;;;;;;;;5093169;28;20488;-58
2022/02/21 00:18:59;;;;;;;1.20;0.93;;;;;;;;;;5093094;28;20549;-58
2022/02/21 00:21:26;;;;;;;1.08;0.73;;;;;;;;;;5092788;28;20061;-58
2022/02/21 00:23:52;;;;;;;1.83;0.98;;;;;;;;;;5092746;28;20489;-57
2022/02/21 00:26:24;;;;;;;1.38;0.80;;;;;;;;;;5092898;28;20024;-58
2022/02/21 00:28:49;;;;;;;1.30;0.75;;;;;;;;;;5090384;28;20056;-58
2022/02/21 00:31:15;;;;;;;2.60;0.95;;;;;;;;;;5092998;28;20008;-62
2022/02/21 00:33:41;;;;;;;0.60;0.60;;;;;;;;;;5092548;28;20519;-64
2022/02/21 00:36:06;;;;;;;1.50;0.90;;;;;;;;;;5091606;28;20012;-63
2022/02/21 00:38:32;;;;;;;0.70;0.60;;;;;;;;;;5092667;28;20016;-62
2022/02/21 00:40:58;;;;;;;1.15;0.90;;;;;;;;;;5092820;28;20038;-62
2022/02/21 00:43:23;;;;;;;1.05;0.80;;;;;;;;;;5092632;28;20111;-62
2022/02/21 00:45:49;;;;;;;0.75;0.57;;;;;;;;;;5092421;28;20024;-62
2022/02/21 00:48:15;;;;;;;1.00;0.90;;;;;;;;;;5074061;28;20113;-62
2022/02/21 00:50:40;;;;;;;0.73;0.70;;;;;;;;;;5091394;28;20425;-62
2022/02/21 00:53:06;;;;;;;0.60;0.60;;;;;;;;;;5092521;28;20020;-63
2022/02/21 00:55:33;;;;;;;0.75;0.60;;;;;;;;;;5092691;28;20028;-64
2022/02/21 00:57:59;;;;;;;0.85;0.80;;;;;;;;;;5092544;28;20025;-63
2022/02/21 01:00:24;;;;;;;0.50;0.50;;;;;;;;;;5092569;28;20016;-63
2022/02/21 01:02:50;;;;;;;0.98;0.70;;;;;;;;;;5091495;28;20466;-63
2022/02/21 01:05:15;;;;;;;0.82;0.82;;;;;;;;;;5092534;28;20043;-63
2022/02/21 01:07:41;;;;;;;1.00;0.90;;;;;;;;;;5092332;28;20103;-63
2022/02/21 01:10:10;;;;;;;0.82;0.70;;;;;;;;;;5090961;28;20020;-63
2022/02/21 01:12:36;;;;;;;1.55;0.70;;;;;;;;;;5094348;28;20017;-63
2022/02/21 01:15:02;;;;;;;1.13;1.02;;;;;;;;;;5095968;28;20385;-63
2022/02/21 01:17:28;;;;;;;0.68;0.40;;;;;;;;;;5094920;28;20048;-63
2022/02/21 01:19:53;;;;;;;1.33;0.70;;;;;;;;;;5095993;28;20050;-63
2022/02/21 01:22:19;;;;;;;0.70;0.70;;;;;;;;;;5095861;28;20580;-64
2022/02/21 01:24:45;;;;;;;0.68;0.60;;;;;;;;;;5094723;28;20032;-64
2022/02/21 01:27:14;;;;;;;1.00;0.70;;;;;;;;;;5092947;28;20035;-63
2022/02/21 01:29:40;;;;;;;0.47;0.40;;;;;;;;;;5095563;28;20104;-63
2022/02/21 01:32:06;;;;;;;0.88;0.70;;;;;;;;;;5095600;28;20039;-63
2022/02/21 01:34:32;;;;;;;0.40;0.40;;;;;;;;;;5095618;28;20065;-63
2022/02/21 01:36:58;;;;;;;0.75;0.40;;;;;;;;;;5093873;28;20424;-63
2022/02/21 01:39:23;;;;;;;0.52;0.50;;;;;;;;;;5094861;28;20016;-63
2022/02/21 01:41:49;;;;;;;0.68;0.68;;;;;;;;;;5093993;28;20389;-63
2022/02/21 01:44:14;;;;;;;1.02;0.77;;;;;;;;;;5095235;28;20069;-63
2022/02/21 01:46:41;;;;;;;0.60;0.60;;;;;;;;;;5095193;28;20085;-63
2022/02/21 01:49:08;;;;;;;0.30;0.30;;;;;;;;;;5094965;28;20048;-58
2022/02/21 01:51:34;;;;;;;0.40;0.40;;;;;;;;;;5095184;28;20021;-57
2022/02/21 01:54:00;;;;;;;0.38;0.38;;;;;;;;;;5095001;28;20012;-63
2022/02/21 01:56:26;;;;;;;0.40;0.40;;;;;;;;;;5095245;28;20103;-63
2022/02/21 01:58:52;;;;;;;0.85;0.50;;;;;;;;;;5092394;28;20024;-62
2022/02/21 02:01:18;;;;;;;0.45;0.45;;;;;;;;;;5094892;28;20057;-57
2022/02/21 02:03:43;;;;;;;0.85;0.73;;;;;;;;;;5093793;28;20038;-57
2022/02/21 02:06:09;;;;;;;0.40;0.38;;;;;;;;;;5094840;28;20088;-57
2022/02/21 02:08:35;;;;;;;0.40;0.40;;;;;;;;;;5093592;28;20584;-58
2022/02/21 02:11:00;;;;;;;1.45;0.50;;;;;;;;;;5094882;28;20028;-58
2022/02/21 02:13:26;;;;;;;0.60;0.50;;;;;;;;;;5094990;28;20425;-58
2022/02/21 02:15:52;;;;;;;0.40;0.38;;;;;;;;;;5094989;28;20036;-58
2022/02/21 02:18:18;;;;;;;0.20;0.20;;;;;;;;;;5094878;28;20111;-57
2022/02/21 02:20:43;;;;;;;1.02;0.57;;;;;;;;;;5094936;28;20441;-57
2022/02/21 02:23:09;;;;;;;0.40;0.40;;;;;;;;;;5094800;28;20016;-57
2022/02/21 02:25:34;;;;;;;0.52;0.50;;;;;;;;;;5093594;28;20043;-58
2022/02/21 02:28:00;;;;;;;0.57;0.52;;;;;;;;;;5094533;28;20016;-57
2022/02/21 02:30:25;;;;;;;0.63;0.40;;;;;;;;;;5094528;28;20048;-57
2022/02/21 02:32:51;;;;;;;0.85;0.47;;;;;;;;;;5094355;28;20454;-57
2022/02/21 02:35:17;;;;;;;0.20;0.20;;;;;;;;;;5094578;28;20020;-57
2022/02/21 02:37:42;;;;;;;1.13;0.35;;;;;;;;;;5094441;28;20069;-57
2022/02/21 02:40:08;;;;;;;0.60;0.40;;;;;;;;;;5094352;28;20371;-57
2022/02/21 02:42:33;;;;;;;0.55;0.38;;;;;;;;;;5094259;28;20020;-62
2022/02/21 02:44:59;;;;;;;0.40;0.40;;;;;;;;;;5094474;28;20443;-58
2022/02/21 02:47:24;;;;;;;0.60;0.50;;;;;;;;;;5093888;28;20063;-57
2022/02/21 02:49:50;;;;;;;0.45;0.45;;;;;;;;;;5094173;28;20497;-58
2022/02/21 02:52:16;;;;;;;0.77;0.43;;;;;;;;;;5094314;28;20394;-57
2022/02/21 02:54:41;;;;;;;0.30;0.30;;;;;;;;;;5093849;28;20090;-57
2022/02/21 02:57:07;;;;;;;0.20;0.20;;;;;;;;;;5093007;28;20474;-57
2022/02/21 02:59:33;;;;;;;0.50;0.47;;;;;;;;;;5092755;28;20125;-57
2022/02/21 03:01:58;;;;;;;0.40;0.40;;;;;;;;;;5094118;28;20047;-62
2022/02/21 03:04:24;;;;;;;0.60;0.55;;;;;;;;;;5093937;28;20386;-62
2022/02/21 03:06:49;;;;;;;0.30;0.30;;;;;;;;;;5093874;28;20017;-62
2022/02/21 03:09:15;;;;;;;1.45;0.60;;;;;;;;;;5093535;28;20024;-62
2022/02/21 03:11:40;;;;;;;0.30;0.30;;;;;;;;;;5092656;28;20024;-63
2022/02/21 03:14:06;;;;;;;0.47;0.38;;;;;;;;;;5093696;28;20509;-63
2022/02/21 03:16:31;;;;;;;0.57;0.38;;;;;;;;;;5093625;28;20022;-63
2022/02/21 03:18:57;;;;;;;0.15;0.15;;;;;;;;;;5070309;28;20024;-63
2022/02/21 03:21:23;;;;;;;0.50;0.50;;;;;;;;;;5093533;28;20019;-63
2022/02/21 03:23:48;;;;;;;0.50;0.45;;;;;;;;;;5093838;28;20039;-63
2022/02/21 03:26:13;;;;;;;0.77;0.60;;;;;;;;;;5093697;28;20020;-58
2022/02/21 03:28:39;;;;;;;0.20;0.20;;;;;;;;;;5092225;28;20027;-58
2022/02/21 03:31:12;;;;;;;0.43;0.38;;;;;;;;;;5093652;28;20064;-58
2022/02/21 03:33:38;;;;;;;0.30;0.30;;;;;;;;;;5088072;28;20020;-58
2022/02/21 03:36:03;;;;;;;0.43;0.40;;;;;;;;;;5093047;28;20011;-57
2022/02/21 03:38:29;;;;;;;0.57;0.57;;;;;;;;;;5093338;28;20039;-63
2022/02/21 03:40:54;;;;;;;0.60;0.60;;;;;;;;;;5093306;28;20056;-63
2022/02/21 03:43:21;;;;;;;0.30;0.30;;;;;;;;;;5093208;28;20116;-62
2022/02/21 03:45:46;;;;;;;0.50;0.50;;;;;;;;;;5093099;28;20474;-62
2022/02/21 03:48:13;;;;;;;0.45;0.45;;;;;;;;;;5092679;28;20121;-62
2022/02/21 03:50:39;;;;;;;0.40;0.38;;;;;;;;;;5090134;28;20106;-62
2022/02/21 03:53:04;;;;;;;0.20;0.20;;;;;;;;;;5092177;28;20016;-63
2022/02/21 03:55:29;;;;;;;0.60;0.57;;;;;;;;;;5093077;28;20012;-63
2022/02/21 03:57:55;;;;;;;1.35;0.60;;;;;;;;;;5093015;28;20032;-62
2022/02/21 04:00:21;;;;;;;0.30;0.30;;;;;;;;;;5093362;28;20044;-63
2022/02/21 04:02:46;;;;;;;1.33;0.60;;;;;;;;;;5092003;28;20512;-63
2022/02/21 04:05:14;;;;;;;1.20;0.50;;;;;;;;;;5092902;28;20020;-64
2022/02/21 04:07:42;;;;;;;0.82;0.60;;;;;;;;;;5091866;28;20409;-58
2022/02/21 04:10:08;;;;;;;0.52;0.50;;;;;;;;;;5088945;28;20047;-58
2022/02/21 04:12:34;;;;;;;0.55;0.40;;;;;;;;;;5091963;28;20023;-58
2022/02/21 04:14:59;;;;;;;1.42;0.60;;;;;;;;;;5093156;28;20098;-58
2022/02/21 04:17:25;;;;;;;0.52;0.50;;;;;;;;;;5091526;28;20028;-58
2022/02/21 04:19:50;;;;;;;0.90;0.57;;;;;;;;;;5092904;28;20065;-58
2022/02/21 04:22:17;;;;;;;1.48;0.60;;;;;;;;;;5091653;28;20108;-58
2022/02/21 04:24:42;;;;;;;0.60;0.60;;;;;;;;;;5092852;28;20493;-58
2022/02/21 04:27:08;;;;;;;0.60;0.52;;;;;;;;;;5090504;28;20024;-58
2022/02/21 04:29:33;;;;;;;0.60;0.45;;;;;;;;;;5093062;28;20467;-58
2022/02/21 04:31:59;;;;;;;0.55;0.55;;;;;;;;;;5092777;28;20029;-58
2022/02/21 04:34:25;;;;;;;0.45;0.45;;;;;;;;;;5092644;28;20012;-63
2022/02/21 04:36:50;;;;;;;0.60;0.50;;;;;;;;;;5092754;28;20083;-63
2022/02/21 04:39:16;;;;;;;1.45;0.60;;;;;;;;;;5092743;28;20020;-64
2022/02/21 04:41:42;;;;;;;0.40;0.40;;;;;;;;;;5092505;28;20036;-63
2022/02/21 04:44:07;;;;;;;0.60;0.60;;;;;;;;;;5092190;28;20035;-63
2022/02/21 04:46:33;;;;;;;1.05;0.50;;;;;;;;;;5093075;28;20123;-63
2022/02/21 04:48:58;;;;;;;2.00;0.50;;;;;;;;;;5096437;28;20535;-63
2022/02/21 04:51:24;;;;;;;0.60;0.60;;;;;;;;;;5096570;28;20497;-63
2022/02/21 04:53:50;;;;;;;0.70;0.60;;;;;;;;;;5096442;28;20023;-63
2022/02/21 04:56:16;;;;;;;1.00;0.57;;;;;;;;;;5096593;28;20024;-63
2022/02/21 04:58:41;;;;;;;1.00;0.60;;;;;;;;;;5094816;28;20012;-62
2022/02/21 05:01:07;;;;;;;0.70;0.70;;;;;;;;;;5094864;28;20032;-63
2022/02/21 05:03:32;;;;;;;1.50;0.52;;;;;;;;;;5096256;28;20016;-62
2022/02/21 05:05:58;;;;;;;0.63;0.57;;;;;;;;;;5095897;28;20020;-64
2022/02/21 05:08:25;;;;;;;0.82;0.82;;;;;;;;;;5096696;28;20077;-63
2022/02/21 05:10:50;;;;;;;2.00;0.80;;;;;;;;;;5095579;28;20390;-58
2022/02/21 05:13:16;;;;;;;0.63;0.63;;;;;;;;;;5095936;28;20020;-63
2022/02/21 05:15:41;;;;;;;0.65;0.57;;;;;;;;;;5096168;28;20111;-63
2022/02/21 05:18:07;;;;;;;0.47;0.47;;;;;;;;;;5096586;28;20024;-63
2022/02/21 05:20:32;;;;;;;1.00;0.70;;;;;;;;;;5096255;28;20046;-63
2022/02/21 05:22:58;;;;;;;1.23;0.80;;;;;;;;;;5096339;28;20015;-63
2022/02/21 05:25:25;;;;;;;1.00;0.68;;;;;;;;;;5096270;28;20054;-64
2022/02/21 05:27:51;;;;;;;2.35;1.55;;;;;;;;;;5096288;28;20012;-64
2022/02/21 05:30:16;;;;;;;1.02;0.93;;;;;;;;;;5095830;28;20616;-64
2022/02/21 05:32:42;;;;;;;0.70;0.70;;;;;;;;;;5096112;28;20391;-63
2022/02/21 05:35:08;;;;;;;1.20;0.90;;;;;;;;;;5095439;28;20068;-63
2022/02/21 05:37:33;;;;;;;0.68;0.68;;;;;;;;;;5096144;28;20073;-63
2022/02/21 05:39:59;;;;;;;1.08;1.00;;;;;;;;;;5095546;28;20028;-63
2022/02/21 05:42:24;;;;;;;1.75;1.15;;;;;;;;;;5096467;28;20024;-64
2022/02/21 05:44:50;;;;;;;0.80;0.80;;;;;;;;;;5095768;28;20095;-63
2022/02/21 05:47:15;;;;;;;0.80;0.80;;;;;;;;;;5093831;28;20142;-63
2022/02/21 05:49:41;;;;;;;0.45;0.45;;;;;;;;;;5095931;28;20107;-63
2022/02/21 05:52:07;;;;;;;1.15;0.82;;;;;;;;;;5094574;28;20020;-63
2022/02/21 05:54:33;;;;;;;0.60;0.60;;;;;;;;;;5094401;28;20062;-63
2022/02/21 05:56:58;;;;;;;0.75;0.75;;;;;;;;;;5095530;28;20020;-63
2022/02/21 05:59:24;;;;;;;0.88;0.73;;;;;;;;;;5093717;28;20028;-63
2022/02/21 06:01:50;;;;;;;0.85;0.85;;;;;;;;;;5095682;28;20416;-63
2022/02/21 06:04:15;;;;;;;1.60;1.50;;;;;;;;;;5095499;28;20032;-63
2022/02/21 06:06:47;;;;;;;1.65;1.38;;;;;;;;;;5095658;28;20024;-63
2022/02/21 06:09:13;;;;;;;1.15;1.05;;;;;;;;;;5095268;28;20094;-63
2022/02/21 06:11:38;;;;;;;1.20;1.10;;;;;;;;;;5095256;28;20023;-62
2022/02/21 06:14:04;;;;;;;1.20;1.08;;;;;;;;;;5095048;28;20025;-62
2022/02/21 06:16:30;;;;;;;1.05;0.90;;;;;;;;;;5095076;28;20072;-63
2022/02/21 06:18:56;;;;;;;1.45;0.90;;;;;;;;;;5095231;28;20024;-63
2022/02/21 06:21:22;;;;;;;1.25;1.10;;;;;;;;;;5095334;28;20016;-63
2022/02/21 06:23:47;;;;;;;0.82;0.77;;;;;;;;;;5095255;28;20075;-63
2022/02/21 06:26:12;;;;;;;1.38;0.90;;;;;;;;;;5095290;28;20024;-63
2022/02/21 06:28:38;;;;;;;1.17;1.08;;;;;;;;;;5094974;28;20063;-64
2022/02/21 06:31:08;;;;;;;0.95;0.52;;;;;;;;;;5095027;28;20102;-63
2022/02/21 06:33:34;;;;;;;2.45;1.15;;;;;;;;;;5094682;28;20028;-62
2022/02/21 06:35:59;;;;;;;0.90;0.73;;;;;;;;;;5094885;28;20028;-64
2022/02/21 06:38:24;;;;;;;1.70;1.10;;;;;;;;;;5094929;28;20024;-62
2022/02/21 06:40:52;;;;;;;1.20;1.10;;;;;;;;;;5094631;28;20050;-63
2022/02/21 06:43:17;;;;;;;1.85;1.30;;;;;;;;;;5094593;28;20043;-63
2022/02/21 06:45:43;;;;;;;1.08;0.98;;;;;;;;;;5094665;28;20017;-63
2022/02/21 06:48:09;;;;;;;2.00;1.48;;;;;;;;;;5094107;28;20036;-63
2022/02/21 06:50:35;;;;;;;1.30;0.88;;;;;;;;;;5094520;28;20051;-63
2022/02/21 06:53:02;;;;;;;1.25;1.15;;;;;;;;;;5094723;28;20024;-63
2022/02/21 06:55:28;;;;;;;2.95;1.33;;;;;;;;;;5094799;28;20020;-63
2022/02/21 06:57:54;;;;;;;1.85;1.23;;;;;;;;;;5094531;28;20390;-63
2022/02/21 07:00:20;;;;;;;1.88;1.30;;;;;;;;;;5094560;28;20038;-63
2022/02/21 07:02:45;;;;;;;1.27;1.17;;;;;;;;;;5093417;28;20474;-63
2022/02/21 07:05:11;;;;;;;1.58;1.48;;;;;;;;;;5094195;28;20024;-63
2022/02/21 07:07:37;;;;;;;1.80;1.40;;;;;;;;;;5094228;28;20118;-64
2022/02/21 07:10:04;;;;;;;2.03;1.27;;;;;;;;;;5093367;28;20021;-63
2022/02/21 07:12:29;;;;;;;1.10;1.00;;;;;;;;;;5093136;28;20028;-63
2022/02/21 07:14:55;;;;;;;1.35;1.13;;;;;;;;;;5094554;28;20156;-63
2022/02/21 07:17:23;;;;;;;1.17;1.08;;;;;;;;;;5093952;28;20028;-63
2022/02/21 07:19:49;;;;;;;2.42;0.95;;;;;;;;;;5093893;28;20016;-63
2022/02/21 07:22:15;;;;;;;1.05;0.95;;;;;;;;;;5093678;28;20101;-63
2022/02/21 07:24:40;;;;;;;1.98;0.90;;;;;;;;;;5093831;28;20481;-62
2022/02/21 07:27:06;;;;;;;2.28;1.20;;;;;;;;;;5093438;28;20470;-62
2022/02/21 07:29:32;;;;;;;0.50;0.45;;;;;;;;;;5093569;28;20444;-63
2022/02/21 07:31:58;;;;;;;0.88;0.80;;;;;;;;;;5093642;28;20047;-64
2022/02/21 07:34:23;;;;;;;1.15;0.75;;;;;;;;;;5093692;28;20473;-64
2022/02/21 07:36:48;;;;;;;1.25;0.90;;;;;;;;;;5093550;28;20031;-63
2022/02/21 07:39:14;;;;;;;2.83;1.10;;;;;;;;;;5093644;28;20050;-63
2022/02/21 07:41:39;;;;;;;0.82;0.82;;;;;;;;;;5093602;28;20501;-63
2022/02/21 07:44:05;;;;;;;0.93;0.88;;;;;;;;;;5093404;28;20031;-63
2022/02/21 07:46:31;;;;;;;0.47;0.47;;;;;;;;;;5093377;28;20478;-63
2022/02/21 07:48:56;;;;;;;0.82;0.70;;;;;;;;;;5093208;28;20405;-63
2022/02/21 07:51:21;;;;;;;1.10;1.00;;;;;;;;;;5093411;28;20024;-63
2022/02/21 07:53:47;;;;;;;0.52;0.52;;;;;;;;;;5093335;28;20020;-63
2022/02/21 07:56:13;;;;;;;0.70;0.68;;;;;;;;;;5093347;28;20389;-63
2022/02/21 07:58:39;;;;;;;0.85;0.82;;;;;;;;;;5093169;28;20107;-64
2022/02/21 08:01:04;;;;;;;0.77;0.77;;;;;;;;;;5093286;28;20034;-63
2022/02/21 08:03:29;;;;;;;0.80;0.80;;;;;;;;;;5093245;28;20024;-63
2022/02/21 08:05:56;;;;;;;1.33;1.17;;;;;;;;;;5093266;28;20035;-63
2022/02/21 08:08:21;;;;;;;1.27;1.10;;;;;;;;;;5093102;28;20073;-63
2022/02/21 08:10:47;;;;;;;1.30;1.20;;;;;;;;;;5093152;28;20035;-63
2022/02/21 08:13:16;;;;;;;0.90;0.90;;;;;;;;;;5093087;28;20026;-63
2022/02/21 08:15:42;;;;;;;1.02;0.98;;;;;;;;;;5093071;28;20022;-64
2022/02/21 08:18:10;;;;;;;0.80;0.80;;;;;;;;;;5093182;28;20390;-64
2022/02/21 08:20:35;;;;;;;0.90;0.88;;;;;;;;;;5093268;28;20032;-63
2022/02/21 08:23:00;;;;;;;0.88;0.88;;;;;;;;;;5097231;28;20103;-63
2022/02/21 08:25:26;;;;;;;1.10;1.00;;;;;;;;;;5097101;28;20466;-63
2022/02/21 08:27:51;;;;;;;0.70;0.60;;;;;;;;;;5097233;28;20052;-63
2022/02/21 08:30:18;;;;;;;1.85;1.35;;;;;;;;;;5097047;28;20032;-63
2022/02/21 08:32:44;;;;;;;1.60;0.90;;;;;;;;;;5097080;28;20043;-63
2022/02/21 08:35:10;;;;;;;1.38;1.27;;;;;;;;;;5095752;28;20481;-63
2022/02/21 08:37:35;;;;;;;0.80;0.80;;;;;;;;;;5095512;28;20012;-63
2022/02/21 08:40:01;;;;;;;1.35;1.10;;;;;;;;;;5096751;28;20028;-63
2022/02/21 08:42:27;;;;;;;1.70;1.33;;;;;;;;;;5096744;28;20031;-63
2022/02/21 08:44:52;;;;;;;1.20;1.10;;;;;;;;;;5096733;28;20038;-63
2022/02/21 08:47:21;;;;;;;1.02;1.00;;;;;;;;;;5096477;28;20124;-63
2022/02/21 08:49:46;;;;;;;1.33;0.45;;;;;;;;;;5095411;28;20046;-70
2022/02/21 08:52:12;;;;;;;1.10;1.00;;;;;;;;;;5096654;28;20421;-65
2022/02/21 08:54:37;;;;;;;1.20;1.10;;;;;;;;;;5096650;28;20028;-65
2022/02/21 08:57:05;;;;;;;1.35;1.25;;;;;;;;;;5096589;28;20044;-65
2022/02/21 08:59:31;;;;;;;0.70;0.60;;;;;;;;;;5096394;28;20371;-65
2022/02/21 09:01:56;;;;;;;1.25;1.15;;;;;;;;;;5096416;28;20023;-65
2022/02/21 09:04:22;;;;;;;1.55;1.42;;;;;;;;;;5096539;28;20032;-65
2022/02/21 09:06:48;;;;;;;1.83;1.40;;;;;;;;;;5096453;28;20557;-65
2022/02/21 09:09:14;;;;;;;1.65;0.70;;;;;;;;;;5096322;28;20047;-65
2022/02/21 09:11:39;;;;;;;1.13;1.05;;;;;;;;;;5096390;28;20103;-65
2022/02/21 09:14:05;;;;;;;0.80;0.80;;;;;;;;;;5096078;28;20032;-65
2022/02/21 09:16:30;;;;;;;1.35;1.25;;;;;;;;;;5096311;28;20142;-65
2022/02/21 09:18:56;;;;;;;1.50;1.20;;;;;;;;;;5096235;28;20032;-65
2022/02/21 09:21:22;;;;;;;1.63;1.10;;;;;;;;;;5094967;28;20500;-65
2022/02/21 09:23:47;;;;;;;1.08;0.98;;;;;;;;;;5096319;28;20389;-65
2022/02/21 09:26:12;;;;;;;1.30;1.20;;;;;;;;;;5096203;28;20020;-65
2022/02/21 09:28:38;;;;;;;1.42;1.13;;;;;;;;;;5095905;28;20168;-65
2022/02/21 09:31:06;;;;;;;1.08;0.43;;;;;;;;;;5094616;28;20050;-65
2022/02/21 09:33:33;;;;;;;0.90;0.90;;;;;;;;;;5095124;28;20024;-65
2022/02/21 09:35:58;;;;;;;0.82;0.82;;;;;;;;;;5094604;28;20016;-65
2022/02/21 09:38:24;;;;;;;1.55;1.30;;;;;;;;;;5095903;28;20034;-65
2022/02/21 09:40:50;;;;;;;2.42;1.00;;;;;;;;;;5095697;28;20363;-63
2022/02/21 09:43:22;;;;;;;1.02;0.93;;;;;;;;;;5095789;28;20024;-62
2022/02/21 09:45:50;;;;;;;1.45;0.90;;;;;;;;;;5095729;28;20039;-63
2022/02/21 09:48:16;;;;;;;0.80;0.40;;;;;;;;;;5095087;28;20063;-63
2022/02/21 09:50:42;;;;;;;1.23;1.13;;;;;;;;;;5094337;28;20445;-62
2022/02/21 09:53:08;;;;;;;2.63;1.30;;;;;;;;;;5095458;28;20058;-63
2022/02/21 09:55:35;;;;;;;0.80;0.63;;;;;;;;;;5095540;28;20158;-62
2022/02/21 09:58:01;;;;;;;1.40;1.30;;;;;;;;;;5095405;28;20458;-64
2022/02/21 10:00:27;;;;;;;16.25;5.72;;;;;;;;;;5094080;28;20036;-68
2022/02/21 10:02:52;;;;;;;23.88;5.00;;;;;;;;;;5095288;28;20024;-62
2022/02/21 10:05:22;;;;;;;22.38;4.47;;;;;;;;;;5095171;28;20031;-62
2022/02/21 10:07:47;;;;;;;12.80;3.20;;;;;;;;;;5094059;28;20430;-62
2022/02/21 10:10:16;;;;;;;10.18;4.10;;;;;;;;;;5094951;28;20027;-62
2022/02/21 10:12:45;;;;;;;13.95;3.53;;;;;;;;;;5095407;28;20031;-63
2022/02/21 10:15:11;;;;;;;14.45;3.78;;;;;;;;;;5093853;28;20023;-64
2022/02/21 10:17:37;;;;;;;9.55;2.75;;;;;;;;;;5094865;28;20512;-66
2022/02/21 10:20:04;;;;;;;8.48;3.08;;;;;;;;;;5095099;28;20028;-64
2022/02/21 10:22:32;;;;;;;7.43;2.53;;;;;;;;;;5094982;28;20028;-63
2022/02/21 10:24:58;;;;;;;4.93;2.20;;;;;;;;;;5094852;28;20028;-63
2022/02/21 10:27:25;;;;;;;5.00;1.70;;;;;;;;;;5094732;28;20028;-64
2022/02/21 10:29:50;;;;;;;4.13;2.40;;;;;;;;;;5094728;28;20541;-64
2022/02/21 10:32:17;;;;;;;3.33;1.88;;;;;;;;;;5093459;28;20048;-64
2022/02/21 10:34:45;;;;;;;3.22;1.55;;;;;;;;;;5094718;28;20020;-65
2022/02/21 10:37:11;;;;;;;2.50;1.45;;;;;;;;;;5094737;28;20059;-64
2022/02/21 10:39:37;;;;;;;2.45;1.50;;;;;;;;;;5094573;28;20027;-63
2022/02/21 10:42:07;;;;;;;2.65;1.58;;;;;;;;;;5093381;28;20028;-64
2022/02/21 10:44:40;;;;;;;2.58;1.75;;;;;;;;;;5094561;28;20024;-64
2022/02/21 10:47:05;;;;;;;2.60;1.60;;;;;;;;;;5094138;28;20058;-64
2022/02/21 10:49:34;;;;;;;4.07;1.60;;;;;;;;;;5094655;28;20036;-65
2022/02/21 10:52:00;;;;;;;2.20;1.33;;;;;;;;;;5094496;28;20027;-64
2022/02/21 10:54:33;;;;;;;1.67;1.40;;;;;;;;;;5094331;28;20020;-64
2022/02/21 10:56:59;;;;;;;2.47;1.67;;;;;;;;;;5094309;28;20043;-64
2022/02/21 10:59:29;;;;;;;4.32;2.53;;;;;;;;;;5093060;28;20471;-64
2022/02/21 11:01:55;;;;;;;1.88;1.77;;;;;;;;;;5094510;28;20064;-64
2022/02/21 11:04:22;;;;;;;2.45;2.25;;;;;;;;;;5094083;28;20115;-64
2022/02/21 11:06:48;;;;;;;1.80;1.70;;;;;;;;;;5094037;28;20079;-64
2022/02/21 11:09:14;;;;;;;2.00;1.80;;;;;;;;;;5093897;28;20052;-64
2022/02/21 11:11:46;;;;;;;3.72;2.83;;;;;;;;;;5093952;28;20020;-64
2022/02/21 11:14:12;;;;;;;3.72;3.10;;;;;;;;;;5093984;28;20107;-64
2022/02/21 11:16:38;;;;;;;3.95;3.10;;;;;;;;;;5093915;28;20142;-64
2022/02/21 11:19:04;;;;;;;4.68;3.22;;;;;;;;;;5092816;28;20122;-64
2022/02/21 11:21:33;;;;;;;4.47;2.95;;;;;;;;;;5093893;28;20020;-64
2022/02/21 11:24:00;;;;;;;6.15;4.00;;;;;;;;;;5094035;28;20063;-64
2022/02/21 11:26:28;;;;;;;5.13;2.80;;;;;;;;;;5093895;28;20508;-64
2022/02/21 11:29:14;;;;;;;3.45;2.80;;;;;;;;;;5092521;28;20030;-64
2022/02/21 11:31:40;;;;;;;2.92;2.38;;;;;;;;;;5086280;28;20038;-64
2022/02/21 11:34:11;;;;;;;4.82;2.28;;;;;;;;;;5092401;28;20020;-64
2022/02/21 11:36:37;;;;;;;3.67;2.85;;;;;;;;;;5093548;28;20032;-64
2022/02/21 11:39:23;;;;;;;7.28;3.28;;;;;;;;;;5093690;28;20363;-64
2022/02/21 11:42:07;;;;;;;3.47;2.78;;;;;;;;;;5093606;28;20397;-65
2022/02/21 11:44:42;;;;;;;3.33;2.50;;;;;;;;;;5093500;28;20028;-64
2022/02/21 11:47:08;;;;;;;3.13;1.85;;;;;;;;;;5093050;28;20074;-64
2022/02/21 11:49:37;;;;;;;3.80;2.55;;;;;;;;;;5093495;28;20474;-64
2022/02/21 11:52:22;;;;;;;2.45;1.75;;;;;;;;;;5093405;28;20066;-65
2022/02/21 11:54:47;;;;;;;3.85;2.47;;;;;;;;;;5093534;28;20397;-64
2022/02/21 11:57:13;;;;;;;2.35;2.08;;;;;;;;;;5093012;28;20016;-63
2022/02/21 11:59:38;;;;;;;3.47;2.55;;;;;;;;;;5091612;28;20024;-80
2022/02/21 12:02:09;;;;;;;3.63;1.85;;;;;;;;;;5093406;28;20020;-76
2022/02/21 12:04:53;;;;;;;2.08;1.38;;;;;;;;;;5093100;28;20039;-76
2022/02/21 12:07:20;;;;;;;2.47;2.10;;;;;;;;;;5093156;28;20032;-76
2022/02/21 12:10:04;;;;;;;3.15;1.80;;;;;;;;;;5091806;28;20028;-76
2022/02/21 12:12:30;;;;;;;2.65;1.70;;;;;;;;;;5091921;28;20017;-73
2022/02/21 12:15:26;;;;;;;1.67;1.30;;;;;;;;;;5093819;28;20016;-70
2022/02/21 12:18:15;;;;;;;1.80;1.48;;;;;;;;;;5062502;28;20390;-70
2022/02/21 12:20:42;;;;;;;2.05;1.85;;;;;;;;;;5063738;28;20048;-70
2022/02/21 12:23:08;;;;;;;2.42;1.45;;;;;;;;;;5093363;28;20028;-70
2022/02/21 12:25:41;;;;;;;1.17;1.08;;;;;;;;;;5091833;28;20056;-70
2022/02/21 12:28:10;;;;;;;1.77;1.17;;;;;;;;;;5091784;28;20104;-70
2022/02/21 12:30:36;;;;;;;2.00;1.30;;;;;;;;;;5092940;28;20016;-70
2022/02/21 12:33:03;;;;;;;3.38;2.10;;;;;;;;;;5092898;28;20052;-70
2022/02/21 12:35:28;;;;;;;1.25;0.95;;;;;;;;;;5091695;28;20021;-70
2022/02/21 12:37:55;;;;;;;2.53;1.67;;;;;;;;;;5092902;28;20028;-70
2022/02/21 12:40:22;;;;;;;2.90;1.58;;;;;;;;;;5092848;28;20024;-70
2022/02/21 12:42:57;;;;;;;1.70;1.50;;;;;;;;;;5091720;28;20028;-70
2022/02/21 12:45:24;;;;;;;2.35;1.65;;;;;;;;;;5091465;28;20496;-70
2022/02/21 12:47:53;;;;;;;3.30;1.92;;;;;;;;;;5092399;28;20470;-70
2022/02/21 12:50:23;;;;;;;3.63;1.58;;;;;;;;;;5091506;28;20031;-70
2022/02/21 12:52:56;;;;;;;2.28;1.40;;;;;;;;;;5092977;28;20056;-70
2022/02/21 12:55:22;;;;;;;1.67;1.30;;;;;;;;;;5092779;28;20115;-70
2022/02/21 12:57:47;;;;;;;1.10;1.00;;;;;;;;;;5092735;28;20078;-70
2022/02/21 13:00:13;;;;;;;1.60;1.30;;;;;;;;;;5091198;28;20028;-71
2022/02/21 13:02:38;;;;;;;0.95;0.90;;;;;;;;;;5091478;28;20046;-70
2022/02/21 13:05:04;;;;;;;1.27;1.08;;;;;;;;;;5092597;28;20470;-70
2022/02/21 13:07:30;;;;;;;1.50;1.20;;;;;;;;;;5074790;28;20119;-70
2022/02/21 13:10:04;;;;;;;1.65;1.33;;;;;;;;;;5096479;28;20024;-70
2022/02/21 13:12:29;;;;;;;1.10;1.00;;;;;;;;;;5096464;28;20020;-70
2022/02/21 13:14:57;;;;;;;1.27;1.17;;;;;;;;;;5096421;28;20050;-70
2022/02/21 13:17:24;;;;;;;1.98;0.90;;;;;;;;;;5094861;28;20359;-71
2022/02/21 13:19:56;;;;;;;1.27;1.17;;;;;;;;;;5096139;28;20058;-70
2022/02/21 13:22:28;;;;;;;1.20;1.10;;;;;;;;;;5094990;28;20028;-70
2022/02/21 13:25:01;;;;;;;1.45;1.02;;;;;;;;;;5096108;28;20182;-70
2022/02/21 13:27:30;;;;;;;1.42;1.08;;;;;;;;;;5094988;28;20035;-70
2022/02/21 13:29:56;;;;;;;1.30;1.08;;;;;;;;;;5096098;28;20020;-70
2022/02/21 13:32:29;;;;;;;1.30;1.00;;;;;;;;;;5094692;28;20478;-70
2022/02/21 13:34:55;;;;;;;1.92;1.02;;;;;;;;;;5095908;28;20493;-70
2022/02/21 13:37:22;;;;;;;1.50;0.90;;;;;;;;;;5094476;28;20020;-70
2022/02/21 13:40:09;;;;;;;1.65;0.98;;;;;;;;;;5095417;28;20035;-59
2022/02/21 13:42:36;;;;;;;1.52;0.80;;;;;;;;;;5088622;28;20044;-59
2022/02/21 13:45:13;;;;;;;1.13;0.80;;;;;;;;;;5095756;28;20028;-59
2022/02/21 13:47:39;;;;;;;1.40;1.20;;;;;;;;;;5094846;28;20044;-59
2022/02/21 13:50:05;;;;;;;2.75;1.50;;;;;;;;;;5095550;28;20036;-59
2022/02/21 13:52:30;;;;;;;1.73;1.38;;;;;;;;;;5095590;28;20470;-59
2022/02/21 13:54:56;;;;;;;1.98;1.40;;;;;;;;;;5095926;28;20017;-59
2022/02/21 13:57:22;;;;;;;2.67;1.45;;;;;;;;;;5095535;28;20089;-59
2022/02/21 13:59:51;;;;;;;2.08;1.60;;;;;;;;;;5095791;28;20065;-59
2022/02/21 14:02:21;;;;;;;3.13;1.27;;;;;;;;;;5095765;28;20024;-59
2022/02/21 14:04:47;;;;;;;0.98;0.77;;;;;;;;;;5095613;28;20039;-59
2022/02/21 14:07:12;;;;;;;1.92;1.35;;;;;;;;;;5095467;28;20028;-59
2022/02/21 14:09:38;;;;;;;1.63;0.90;;;;;;;;;;5095492;28;20024;-59
2022/02/21 14:12:12;;;;;;;2.75;0.75;;;;;;;;;;5095679;28;20512;-58
2022/02/21 14:14:39;;;;;;;2.30;1.63;;;;;;;;;;5095271;28;20028;-59
2022/02/21 14:17:04;;;;;;;1.42;0.98;;;;;;;;;;5095252;28;20017;-59
2022/02/21 14:19:30;;;;;;;2.10;1.02;;;;;;;;;;5094909;28;20035;-59
2022/02/21 14:21:57;;;;;;;2.13;1.30;;;;;;;;;;5094048;28;20028;-59
2022/02/21 14:24:23;;;;;;;1.70;1.00;;;;;;;;;;5095603;28;20032;-59
2022/02/21 14:26:49;;;;;;;2.70;1.70;;;;;;;;;;5095106;28;20023;-59
2022/02/21 14:29:15;;;;;;;2.00;1.33;;;;;;;;;;5095119;28;20028;-59
2022/02/21 14:31:40;;;;;;;1.33;1.23;;;;;;;;;;5094035;28;20489;-59
2022/02/21 14:34:06;;;;;;;0.50;0.50;;;;;;;;;;5093071;28;20024;-59
2022/02/21 14:36:33;;;;;;;1.73;1.13;;;;;;;;;;5093072;28;20972;-59
2022/02/21 14:38:59;;;;;;;2.70;1.38;;;;;;;;;;5070562;28;20089;-59
2022/02/21 14:41:24;;;;;;;2.33;1.35;;;;;;;;;;5074564;28;20020;-61